createdAt,value
2022-10-18T00:00:51.182Z,14.65
2022-10-18T00:03:17.997Z,14.59
2022-10-18T00:05:44.868Z,14.56
2022-10-18T00:08:11.638Z,14.52
2022-10-18T00:10:38.429Z,14.58
2022-10-18T00:13:05.349Z,14.59
2022-10-18T00:15:32.128Z,14.58
2022-10-18T00:17:58.963Z,14.45
2022-10-18T00:20:25.805Z,14.30
2022-10-18T00:22:52.560Z,14.27
2022-10-18T00:25:19.857Z,14.29
2022-10-18T00:27:46.831Z,14.27
2022-10-18T00:30:13.745Z,14.24
2022-10-18T00:32:42.143Z,14.27
2022-10-18T00:35:09.351Z,14.21
2022-10-18T00:37:36.394Z,14.18
2022-10-18T00:40:04.269Z,14.22
2022-10-18T00:42:34.721Z,14.22
2022-10-18T00:45:24.594Z,14.23
2022-10-18T00:48:03.005Z,14.25
2022-10-18T00:50:33.803Z,14.32
2022-10-18T00:53:05.637Z,14.43
2022-10-18T00:55:34.549Z,14.47
2022-10-18T00:58:02.218Z,14.47
2022-10-18T01:00:29.093Z,14.49
2022-10-18T01:02:56.695Z,14.42
2022-10-18T01:05:24.113Z,14.33
2022-10-18T01:08:11.071Z,14.18
2022-10-18T01:10:59.324Z,14.10
2022-10-18T01:13:40.951Z,14.02
2022-10-18T01:16:36.233Z,13.99
2022-10-18T01:19:44.516Z,14.00
2022-10-18T01:22:36.093Z,13.95
2022-10-18T01:25:41.871Z,13.94
2022-10-18T01:28:37.271Z,13.98
2022-10-18T01:31:12.111Z,14.01
2022-10-18T01:33:51.021Z,13.89
2022-10-18T01:36:41.590Z,13.75
2022-10-18T01:39:15.437Z,13.80
2022-10-18T01:41:44.817Z,13.84
2022-10-18T01:44:17.262Z,13.76
2022-10-18T01:46:45.713Z,13.74
2022-10-18T01:49:12.611Z,13.69
2022-10-18T01:51:39.367Z,13.65
2022-10-18T01:54:06.239Z,13.68
2022-10-18T01:57:28.479Z,13.73
2022-10-18T02:00:17.056Z,13.76
2022-10-18T02:02:55.110Z,13.80
2022-10-18T02:05:45.381Z,13.86
2022-10-18T02:08:32.602Z,13.78
2022-10-18T02:11:10.311Z,13.64
2022-10-18T02:13:48.476Z,13.54
2022-10-18T02:16:42.104Z,13.55
2022-10-18T02:19:21.066Z,13.51
2022-10-18T02:21:50.266Z,13.46
2022-10-18T02:24:19.324Z,13.39
2022-10-18T02:26:46.181Z,13.33
2022-10-18T02:29:13.528Z,13.28
2022-10-18T02:31:56.540Z,13.19
2022-10-18T02:34:36.029Z,13.10
2022-10-18T02:37:03.659Z,13.01
2022-10-18T02:39:42.732Z,13.04
2022-10-18T02:42:11.017Z,13.13
2022-10-18T02:44:39.131Z,13.18
2022-10-18T02:47:08.020Z,13.23
2022-10-18T02:49:34.872Z,13.22
2022-10-18T02:52:01.706Z,13.27
2022-10-18T02:54:28.496Z,13.33
2022-10-18T02:56:55.546Z,13.30
2022-10-18T02:59:22.343Z,13.21
2022-10-18T03:01:49.203Z,13.17
2022-10-18T03:04:16.220Z,13.08
2022-10-18T03:06:43.056Z,13.02
2022-10-18T03:09:10.059Z,13.09
2022-10-18T03:11:36.860Z,13.07
2022-10-18T03:14:03.635Z,12.96
2022-10-18T03:16:30.576Z,12.92
2022-10-18T03:18:57.355Z,12.94
2022-10-18T03:21:24.142Z,13.02
2022-10-18T03:23:50.946Z,13.07
2022-10-18T03:26:17.732Z,13.05
2022-10-18T03:28:44.635Z,13.06
2022-10-18T03:31:11.463Z,13.05
2022-10-18T03:33:38.308Z,13.01
2022-10-18T03:36:05.322Z,12.99
2022-10-18T03:38:32.089Z,12.82
2022-10-18T03:40:58.883Z,12.77
2022-10-18T03:43:26.020Z,12.68
2022-10-18T03:45:52.866Z,12.67
2022-10-18T03:48:19.657Z,12.67
2022-10-18T03:50:46.501Z,12.67
2022-10-18T03:53:13.288Z,12.69
2022-10-18T03:55:40.164Z,12.74
2022-10-18T03:58:07.007Z,12.76
2022-10-18T04:00:33.854Z,12.75
2022-10-18T04:03:00.875Z,12.73
2022-10-18T04:05:30.644Z,12.73
2022-10-18T04:07:58.088Z,12.72
2022-10-18T04:10:25.146Z,12.71
2022-10-18T04:12:52.099Z,12.69
2022-10-18T04:15:19.022Z,12.50
2022-10-18T04:17:46.074Z,12.44
2022-10-18T04:20:13.125Z,12.37
2022-10-18T04:22:39.929Z,12.32
2022-10-18T04:25:07.149Z,12.27
2022-10-18T04:27:34.217Z,12.26
2022-10-18T04:30:01.193Z,12.30
2022-10-18T04:32:29.351Z,12.25
2022-10-18T04:34:56.216Z,12.28
2022-10-18T04:37:23.110Z,12.29
2022-10-18T04:39:52.763Z,12.25
2022-10-18T04:42:21.461Z,12.19
2022-10-18T04:44:48.598Z,12.11
2022-10-18T04:47:16.464Z,12.07
2022-10-18T04:49:43.602Z,12.12
2022-10-18T04:52:11.856Z,12.17
2022-10-18T04:54:38.633Z,12.24
2022-10-18T04:57:05.463Z,12.29
2022-10-18T04:59:32.245Z,12.36
2022-10-18T05:01:59.144Z,12.33
2022-10-18T05:04:25.997Z,12.31
2022-10-18T05:06:52.833Z,12.27
2022-10-18T05:09:22.172Z,12.29
2022-10-18T05:11:48.949Z,12.39
2022-10-18T05:14:15.864Z,12.46
2022-10-18T05:16:42.710Z,12.55
2022-10-18T05:19:10.193Z,12.67
2022-10-18T05:21:37.574Z,12.74
2022-10-18T05:24:04.735Z,12.83
2022-10-18T05:26:31.786Z,12.89
2022-10-18T05:28:58.652Z,12.95
2022-10-18T05:31:25.478Z,13.04
2022-10-18T05:33:52.274Z,13.08
2022-10-18T05:36:19.074Z,13.09
2022-10-18T05:38:47.847Z,13.16
2022-10-18T05:41:14.921Z,13.20
2022-10-18T05:43:41.773Z,13.11
2022-10-18T05:46:13.457Z,13.10
2022-10-18T05:48:44.287Z,13.17
2022-10-18T05:51:11.413Z,13.27
2022-10-18T05:53:38.496Z,13.25
2022-10-18T05:56:06.948Z,13.33
2022-10-18T05:58:34.560Z,13.49
2022-10-18T06:01:02.287Z,13.59
2022-10-18T06:03:30.615Z,13.80
2022-10-18T06:06:10.224Z,13.94
2022-10-18T06:08:39.615Z,14.05
2022-10-18T06:11:13.536Z,14.24
2022-10-18T06:13:46.069Z,14.42
2022-10-18T06:16:15.586Z,14.62
2022-10-18T06:18:43.057Z,14.71
2022-10-18T06:21:10.209Z,14.84
2022-10-18T06:23:37.010Z,15.05
2022-10-18T06:26:07.613Z,15.13
2022-10-18T06:28:36.389Z,15.39
2022-10-18T06:31:04.653Z,15.55
2022-10-18T06:33:33.290Z,15.75
2022-10-18T06:36:17.718Z,15.91
2022-10-18T06:38:44.981Z,16.03
2022-10-18T06:41:12.281Z,16.08
2022-10-18T06:43:39.129Z,16.12
2022-10-18T06:46:08.319Z,16.11
2022-10-18T06:48:36.576Z,15.42
2022-10-18T06:51:06.759Z,15.02
2022-10-18T06:53:43.802Z,15.14
2022-10-18T06:56:15.589Z,15.19
2022-10-18T06:58:42.360Z,15.30
2022-10-18T07:01:12.892Z,15.41
2022-10-18T07:03:40.043Z,15.52
2022-10-18T07:06:09.710Z,15.57
2022-10-18T07:08:37.937Z,15.69
2022-10-18T07:11:06.167Z,15.74
2022-10-18T07:13:34.111Z,15.77
2022-10-18T07:16:21.527Z,15.82
2022-10-18T07:18:51.360Z,15.68
2022-10-18T07:21:22.441Z,15.72
2022-10-18T07:23:51.080Z,15.76
2022-10-18T07:26:31.129Z,15.94
2022-10-18T07:29:09.177Z,15.84
2022-10-18T07:31:36.663Z,15.95
2022-10-18T07:34:08.102Z,16.13
2022-10-18T07:36:35.018Z,16.32
2022-10-18T07:39:01.809Z,16.42
2022-10-18T07:41:29.174Z,16.65
2022-10-18T07:43:56.012Z,16.85
2022-10-18T07:46:23.082Z,17.06
2022-10-18T07:48:50.786Z,17.27
2022-10-18T07:51:19.664Z,17.38
2022-10-18T07:53:46.754Z,17.55
2022-10-18T07:56:21.618Z,17.78
2022-10-18T07:58:52.163Z,18.03
2022-10-18T08:01:20.990Z,18.22
2022-10-18T08:03:47.837Z,18.14
2022-10-18T08:06:18.801Z,18.39
2022-10-18T08:08:46.668Z,18.24
2022-10-18T08:11:22.888Z,17.96
2022-10-18T08:13:49.927Z,18.36
2022-10-18T08:16:28.675Z,18.69
2022-10-18T08:18:58.293Z,19.21
2022-10-18T08:21:25.772Z,20.18
2022-10-18T08:23:53.872Z,20.63
2022-10-18T08:26:22.917Z,20.59
2022-10-18T08:28:58.372Z,20.81
2022-10-18T08:31:36.702Z,19.61
2022-10-18T08:34:03.495Z,20.23
2022-10-18T08:36:30.261Z,20.24
2022-10-18T08:38:57.066Z,20.36
2022-10-18T08:41:56.477Z,20.55
2022-10-18T08:44:27.627Z,21.12
2022-10-18T08:47:11.304Z,21.86
2022-10-18T08:49:54.323Z,22.46
2022-10-18T08:53:05.073Z,22.94
2022-10-18T08:55:40.134Z,23.49
2022-10-18T08:58:24.763Z,23.34
2022-10-18T09:01:23.331Z,21.51
2022-10-18T09:04:21.139Z,22.18
2022-10-18T09:07:05.232Z,23.24
2022-10-18T09:10:20.238Z,24.41
2022-10-18T09:13:34.455Z,25.44
2022-10-18T09:16:06.606Z,25.30
2022-10-18T09:19:10.689Z,24.85
2022-10-18T09:21:55.619Z,24.95
2022-10-18T09:24:46.510Z,25.17
2022-10-18T09:27:22.753Z,25.15
2022-10-18T09:30:09.344Z,25.19
2022-10-18T09:33:04.713Z,25.42
2022-10-18T09:35:44.361Z,24.98
2022-10-18T09:38:14.542Z,25.05
2022-10-18T09:41:24.925Z,26.16
2022-10-18T09:44:04.018Z,26.60
2022-10-18T09:46:38.253Z,26.56
2022-10-18T09:49:29.677Z,27.52
2022-10-18T09:52:00.143Z,27.04
2022-10-18T09:55:12.961Z,27.60
2022-10-18T09:57:54.666Z,27.23
2022-10-18T10:00:29.851Z,27.13
2022-10-18T10:02:57.556Z,26.31
2022-10-18T10:05:24.414Z,26.19
2022-10-18T10:07:59.773Z,25.73
2022-10-18T10:10:29.856Z,25.97
2022-10-18T10:13:17.715Z,25.49
2022-10-18T10:16:00.384Z,25.83
2022-10-18T10:18:33.737Z,26.95
2022-10-18T10:21:07.709Z,28.08
2022-10-18T10:24:00.953Z,27.13
2022-10-18T10:26:33.868Z,28.33
2022-10-18T10:29:01.213Z,28.69
2022-10-18T10:31:30.542Z,29.40
2022-10-18T10:34:05.699Z,30.24
2022-10-18T10:36:34.088Z,30.79
2022-10-18T10:39:19.270Z,30.10
2022-10-18T10:41:54.710Z,29.53
2022-10-18T10:44:25.463Z,29.96
2022-10-18T10:46:53.496Z,30.95
2022-10-18T10:49:39.524Z,31.51
2022-10-18T10:52:09.398Z,31.97
2022-10-18T10:54:50.402Z,32.04
2022-10-18T10:57:26.484Z,32.67
2022-10-18T10:59:59.672Z,31.90
2022-10-18T11:02:31.213Z,32.46
2022-10-18T11:05:21.947Z,32.25
2022-10-18T11:07:52.535Z,31.78
2022-10-18T11:10:28.598Z,29.87
2022-10-18T11:13:25.110Z,31.57
2022-10-18T11:16:04.949Z,32.23
2022-10-18T11:18:36.997Z,32.40
2022-10-18T11:21:22.162Z,30.02
2022-10-18T11:23:49.137Z,31.38
2022-10-18T11:26:21.589Z,31.56
2022-10-18T11:29:15.814Z,32.51
2022-10-18T11:32:35.527Z,32.64
2022-10-18T11:35:28.988Z,33.00
2022-10-18T11:38:16.582Z,34.27
2022-10-18T11:41:07.459Z,34.74
2022-10-18T11:44:02.593Z,35.46
2022-10-18T11:47:42.635Z,36.06
2022-10-18T11:50:26.258Z,35.72
2022-10-18T11:53:25.408Z,36.19
2022-10-18T11:56:37.771Z,35.27
2022-10-18T12:00:03.960Z,35.08
2022-10-18T12:03:21.563Z,35.32
2022-10-18T12:05:51.240Z,36.34
2022-10-18T12:08:29.483Z,35.70
2022-10-18T12:11:05.414Z,36.52
2022-10-18T12:13:49.297Z,35.47
2022-10-18T12:16:28.744Z,35.62
2022-10-18T12:19:23.585Z,37.10
2022-10-18T12:21:55.761Z,37.93
2022-10-18T12:24:28.352Z,38.49
2022-10-18T12:27:00.329Z,40.35
2022-10-18T12:29:29.495Z,39.41
2022-10-18T12:32:16.538Z,37.88
2022-10-18T12:35:07.157Z,40.01
2022-10-18T12:38:32.141Z,39.52
2022-10-18T12:41:00.028Z,39.98
2022-10-18T12:43:38.943Z,38.86
2022-10-18T12:46:13.230Z,38.22
2022-10-18T12:48:45.435Z,37.77
2022-10-18T12:51:20.488Z,37.63
2022-10-18T12:53:56.399Z,35.73
2022-10-18T12:56:29.233Z,35.11
2022-10-18T12:59:14.741Z,34.73
2022-10-18T13:02:07.580Z,36.88
2022-10-18T13:04:35.278Z,37.87
2022-10-18T13:07:05.061Z,35.62
2022-10-18T13:09:44.436Z,34.87
2022-10-18T13:12:11.175Z,34.14
2022-10-18T13:15:12.408Z,33.56
2022-10-18T13:17:52.924Z,34.97
2022-10-18T13:20:47.918Z,36.29
2022-10-18T13:23:38.284Z,36.32
2022-10-18T13:26:17.046Z,34.72
2022-10-18T13:29:01.378Z,33.26
2022-10-18T13:31:42.744Z,31.63
2022-10-18T13:34:23.061Z,30.87
2022-10-18T13:37:09.807Z,30.21
2022-10-18T13:39:39.805Z,29.11
2022-10-18T13:42:15.593Z,29.00
2022-10-18T13:44:44.635Z,28.23
2022-10-18T13:47:33.111Z,27.92
2022-10-18T13:50:16.517Z,27.85
2022-10-18T13:53:02.048Z,27.73
2022-10-18T13:56:18.032Z,27.52
2022-10-18T13:59:32.385Z,27.65
2022-10-18T14:02:36.488Z,29.47
2022-10-18T14:05:35.063Z,31.03
2022-10-18T14:08:29.290Z,30.82
2022-10-18T14:11:11.264Z,30.32
2022-10-18T14:13:51.670Z,31.55
2022-10-18T14:16:38.569Z,32.85
2022-10-18T14:19:30.992Z,32.52
2022-10-18T14:22:15.729Z,34.05
2022-10-18T14:24:53.876Z,35.28
2022-10-18T14:27:21.553Z,36.34
2022-10-18T14:29:50.133Z,36.54
2022-10-18T14:32:28.632Z,38.02
2022-10-18T14:35:27.365Z,38.27
2022-10-18T14:37:43.344Z,37.96
2022-10-18T14:40:40.355Z,37.75
2022-10-18T14:43:19.020Z,37.82
2022-10-18T14:45:46.049Z,38.22
2022-10-18T14:48:21.898Z,38.36
2022-10-18T14:50:59.251Z,36.90
2022-10-18T14:53:37.131Z,35.55
2022-10-18T14:56:04.681Z,33.32
2022-10-18T14:58:32.441Z,30.98
2022-10-18T15:00:59.894Z,29.89
2022-10-18T15:03:28.334Z,28.89
2022-10-18T15:06:01.909Z,27.62
2022-10-18T15:08:43.731Z,27.15
2022-10-18T15:11:14.479Z,26.70
2022-10-18T15:13:59.337Z,26.31
2022-10-18T15:16:29.753Z,25.98
2022-10-18T15:19:26.927Z,25.63
2022-10-18T15:25:27.990Z,25.32
2022-10-18T15:27:59.458Z,25.24
2022-10-18T15:30:39.259Z,25.08
2022-10-18T15:33:10.766Z,24.85
2022-10-18T15:35:39.068Z,24.77
2022-10-18T15:38:26.258Z,24.72
2022-10-18T15:40:53.487Z,24.65
2022-10-18T15:43:26.181Z,24.48
2022-10-18T15:46:00.103Z,24.36
2022-10-18T15:48:41.246Z,24.31
2022-10-18T15:51:48.082Z,24.23
2022-10-18T15:54:20.058Z,24.15
2022-10-18T15:56:46.894Z,24.11
2022-10-18T15:59:27.809Z,24.08
2022-10-18T16:01:54.988Z,23.93
2022-10-18T16:04:28.891Z,23.82
2022-10-18T16:06:59.038Z,23.70
2022-10-18T16:09:29.012Z,23.62
2022-10-18T16:11:57.476Z,23.51
2022-10-18T16:14:26.144Z,23.35
2022-10-18T16:17:01.986Z,23.31
2022-10-18T16:19:29.101Z,23.15
2022-10-18T16:21:56.171Z,23.06
2022-10-18T16:24:23.369Z,22.90
2022-10-18T16:26:50.921Z,22.81
2022-10-18T16:29:25.802Z,22.81
2022-10-18T16:31:55.215Z,22.60
2022-10-18T16:34:22.011Z,22.43
2022-10-18T16:36:48.821Z,22.38
2022-10-18T16:39:18.337Z,22.24
2022-10-18T16:41:46.415Z,22.15
2022-10-18T16:44:13.967Z,22.13
2022-10-18T16:46:41.146Z,22.04
2022-10-18T16:51:54.253Z,21.89
2022-10-18T16:54:21.204Z,21.88
2022-10-18T16:56:49.955Z,21.88
2022-10-18T16:59:29.239Z,21.94
2022-10-18T17:01:56.493Z,21.84
2022-10-18T17:04:23.329Z,21.93
2022-10-18T17:06:50.476Z,21.88
2022-10-18T17:09:17.314Z,21.84
2022-10-18T17:11:44.149Z,21.78
2022-10-18T17:14:10.940Z,21.76
2022-10-18T17:16:38.939Z,21.78
2022-10-18T17:19:10.452Z,21.82
2022-10-18T17:21:37.795Z,21.80
2022-10-18T17:24:06.096Z,21.81
2022-10-18T17:26:34.192Z,21.91
2022-10-18T17:29:06.967Z,21.93
2022-10-18T17:31:35.529Z,21.75
2022-10-18T17:34:02.679Z,21.69
2022-10-18T17:36:31.851Z,21.65
2022-10-18T17:38:58.941Z,21.52
2022-10-18T17:41:26.010Z,21.47
2022-10-18T17:43:52.833Z,21.36
2022-10-18T17:46:19.727Z,21.23
2022-10-18T17:48:46.959Z,21.16
2022-10-18T17:51:16.776Z,21.05
2022-10-18T17:53:44.080Z,21.01
2022-10-18T17:56:11.970Z,20.93
2022-10-18T17:58:39.149Z,20.78
2022-10-18T18:01:15.585Z,20.66
2022-10-18T18:03:42.514Z,20.61
2022-10-18T18:06:23.002Z,20.50
2022-10-18T18:08:50.257Z,20.41
2022-10-18T18:11:18.085Z,20.24
2022-10-18T18:13:45.351Z,20.17
2022-10-18T18:16:20.303Z,20.09
2022-10-18T18:18:52.632Z,20.00
2022-10-18T18:21:20.498Z,19.99
2022-10-18T18:23:48.277Z,19.91
2022-10-18T18:26:15.873Z,19.83
2022-10-18T18:28:43.074Z,19.85
2022-10-18T18:31:15.506Z,19.72
2022-10-18T18:33:43.077Z,19.64
2022-10-18T18:36:11.144Z,19.60
2022-10-18T18:38:42.324Z,19.55
2022-10-18T18:41:15.918Z,19.51
2022-10-18T18:43:54.166Z,19.54
2022-10-18T18:46:21.984Z,19.55
2022-10-18T18:48:49.312Z,19.55
2022-10-18T18:51:20.326Z,19.55
2022-10-18T18:53:48.568Z,19.50
2022-10-18T18:58:53.666Z,19.50
2022-10-18T19:01:27.491Z,19.49
2022-10-18T19:03:56.223Z,19.53
2022-10-18T19:06:41.624Z,19.52
2022-10-18T19:09:19.584Z,19.46
2022-10-18T19:11:52.446Z,19.37
2022-10-18T19:14:20.254Z,19.34
2022-10-18T19:16:53.353Z,19.23
2022-10-18T19:19:23.156Z,19.14
2022-10-18T19:21:56.008Z,19.09
2022-10-18T19:24:25.490Z,19.06
2022-10-18T19:26:57.775Z,19.06
2022-10-18T19:29:35.402Z,18.99
2022-10-18T19:32:06.070Z,18.98
2022-10-18T19:34:36.545Z,19.00
2022-10-18T19:37:04.208Z,18.96
2022-10-18T19:39:33.960Z,18.97
2022-10-18T19:42:05.519Z,18.92
2022-10-18T19:44:35.825Z,18.90
2022-10-18T19:47:05.678Z,18.86
2022-10-18T19:49:32.650Z,18.81
2022-10-18T19:51:59.445Z,18.76
2022-10-18T19:54:28.074Z,18.73
2022-10-18T19:56:54.894Z,18.58
2022-10-18T19:59:22.778Z,18.58
2022-10-18T20:01:50.001Z,18.58
2022-10-18T20:04:17.581Z,18.50
2022-10-18T20:06:44.691Z,18.41
2022-10-18T20:09:16.186Z,18.43
2022-10-18T20:11:46.356Z,18.36
2022-10-18T20:14:14.251Z,18.36
2022-10-18T20:16:41.232Z,18.34
2022-10-18T20:19:09.401Z,18.32
2022-10-18T20:21:37.228Z,18.28
2022-10-18T20:24:06.572Z,18.34
2022-10-18T20:26:35.688Z,18.34
2022-10-18T20:29:03.462Z,18.32
2022-10-18T20:31:34.488Z,18.31
2022-10-18T20:34:06.106Z,18.19
2022-10-18T20:36:34.460Z,18.09
2022-10-18T20:39:02.448Z,18.07
2022-10-18T20:41:35.397Z,17.93
2022-10-18T20:44:07.073Z,17.88
2022-10-18T20:46:38.375Z,17.80
2022-10-18T20:49:07.397Z,17.78
2022-10-18T20:51:34.489Z,17.61
2022-10-18T20:56:34.157Z,17.55
2022-10-18T20:59:01.660Z,17.48
2022-10-18T21:01:31.619Z,17.41
2022-10-18T21:04:01.254Z,17.26
2022-10-18T21:06:31.147Z,17.11
2022-10-18T21:09:04.989Z,17.07
2022-10-18T21:11:37.494Z,17.05
2022-10-18T21:14:06.573Z,17.07
2022-10-18T21:16:35.845Z,16.95
2022-10-18T21:19:15.175Z,16.90
2022-10-18T21:21:44.926Z,16.86
2022-10-18T21:24:12.914Z,16.86
2022-10-18T21:26:40.010Z,16.87
2022-10-18T21:29:06.871Z,16.87
2022-10-18T21:31:38.984Z,16.90
2022-10-18T21:34:12.722Z,16.90
2022-10-18T21:36:41.330Z,16.89
2022-10-18T21:39:12.495Z,16.71
2022-10-18T21:41:39.788Z,16.65
2022-10-18T21:44:10.678Z,16.57
2022-10-18T21:46:39.380Z,16.52
2022-10-18T21:49:07.361Z,16.47
2022-10-18T21:51:34.725Z,16.44
2022-10-18T21:54:01.604Z,16.43
2022-10-18T21:56:33.824Z,16.45
2022-10-18T21:59:00.831Z,16.47
2022-10-18T22:01:32.378Z,16.39
2022-10-18T22:04:01.496Z,16.33
2022-10-18T22:06:32.176Z,16.18
2022-10-18T22:09:02.074Z,15.97
2022-10-18T22:11:33.491Z,16.04
2022-10-18T22:14:01.024Z,16.11
2022-10-18T22:16:28.046Z,16.14
2022-10-18T22:18:59.488Z,16.18
2022-10-18T22:21:27.305Z,16.12
2022-10-18T22:23:59.284Z,16.12
2022-10-18T22:26:45.798Z,16.22
2022-10-18T22:29:19.268Z,16.26
2022-10-18T22:31:49.885Z,16.26
2022-10-18T22:34:23.235Z,16.19
2022-10-18T22:36:50.389Z,16.10
2022-10-18T22:39:17.570Z,16.13
2022-10-18T22:41:44.943Z,16.15
2022-10-18T22:44:13.730Z,16.14
2022-10-18T22:46:41.966Z,16.04
2022-10-18T22:49:08.847Z,16.08
2022-10-18T22:54:07.778Z,16.24
2022-10-18T22:56:34.598Z,16.27
2022-10-18T22:59:01.441Z,16.28
2022-10-18T23:01:28.237Z,16.27
2022-10-18T23:04:00.622Z,16.15
2022-10-18T23:06:33.388Z,16.15
2022-10-18T23:09:04.924Z,16.11
2022-10-18T23:11:33.813Z,16.01
2022-10-18T23:14:03.615Z,16.00
2022-10-18T23:16:30.693Z,15.93
2022-10-18T23:18:58.912Z,15.92
2022-10-18T23:21:28.544Z,15.85
2022-10-18T23:23:56.858Z,15.81
2022-10-18T23:26:27.307Z,15.77
2022-10-18T23:28:54.888Z,15.72
2022-10-18T23:31:27.068Z,15.74
2022-10-18T23:33:56.916Z,15.76
2022-10-18T23:36:24.256Z,15.75
2022-10-18T23:38:52.057Z,15.79
2022-10-18T23:41:19.420Z,15.82
2022-10-18T23:43:46.734Z,15.91
2022-10-18T23:46:14.546Z,15.95
2022-10-18T23:48:41.969Z,16.00
2022-10-18T23:51:09.216Z,16.07
2022-10-18T23:53:36.517Z,16.17
2022-10-18T23:56:15.548Z,16.31
2022-10-18T23:58:44.068Z,16.33
